createdAt,value
2018-03-28T00:00:20.360Z,17.50
2018-03-28T00:01:26.007Z,17.50
2018-03-28T00:02:31.580Z,17.40
2018-03-28T00:03:37.490Z,17.50
2018-03-28T00:04:43.262Z,17.40
2018-03-28T00:05:48.994Z,17.40
2018-03-28T00:06:54.138Z,17.40
2018-03-28T00:07:59.050Z,17.40
2018-03-28T00:09:04.234Z,17.40
2018-03-28T00:10:09.405Z,17.40
2018-03-28T00:11:14.328Z,17.50
2018-03-28T00:12:19.511Z,17.50
2018-03-28T00:13:24.390Z,17.40
2018-03-28T00:14:29.561Z,17.40
2018-03-28T00:15:34.726Z,17.40
2018-03-28T00:16:39.718Z,17.40
2018-03-28T00:17:57.343Z,17.40
2018-03-28T00:19:02.336Z,17.40
2018-03-28T00:20:07.398Z,17.40
2018-03-28T00:21:12.613Z,17.40
2018-03-28T00:22:17.586Z,17.40
2018-03-28T00:23:22.691Z,17.40
2018-03-28T00:24:27.725Z,17.40
2018-03-28T00:25:32.702Z,17.40
2018-03-28T00:26:37.537Z,17.40
2018-03-28T00:27:42.327Z,17.40
2018-03-28T00:28:47.154Z,17.40
2018-03-28T00:29:52.231Z,17.40
2018-03-28T00:30:57.033Z,17.40
2018-03-28T00:32:01.855Z,17.40
2018-03-28T00:33:06.719Z,17.40
2018-03-28T00:34:11.553Z,17.40
2018-03-28T00:35:16.665Z,17.40
2018-03-28T00:36:21.809Z,17.40
2018-03-28T00:37:26.937Z,17.40
2018-03-28T00:38:32.046Z,17.40
2018-03-28T00:39:36.895Z,17.40
2018-03-28T00:40:41.975Z,17.40
2018-03-28T00:41:47.040Z,17.40
2018-03-28T00:42:52.149Z,17.40
2018-03-28T00:43:57.070Z,17.40
2018-03-28T00:45:02.059Z,17.40
2018-03-28T00:46:07.163Z,17.40
2018-03-28T00:47:12.268Z,17.40
2018-03-28T00:48:17.315Z,17.40
2018-03-28T00:49:22.262Z,17.40
2018-03-28T00:50:27.194Z,17.40
2018-03-28T00:51:32.360Z,17.40
2018-03-28T00:52:37.384Z,17.40
2018-03-28T00:53:42.540Z,17.40
2018-03-28T00:54:47.587Z,17.40
2018-03-28T00:55:52.678Z,17.40
2018-03-28T00:56:57.672Z,17.40
2018-03-28T00:58:02.777Z,17.40
2018-03-28T00:59:08.230Z,17.40
2018-03-28T01:00:13.241Z,17.40
2018-03-28T01:01:18.153Z,17.40
2018-03-28T01:02:23.066Z,17.40
2018-03-28T01:03:27.933Z,17.30
2018-03-28T01:04:32.989Z,17.40
2018-03-28T01:05:37.976Z,17.40
2018-03-28T01:06:42.868Z,17.40
2018-03-28T01:07:47.729Z,17.40
2018-03-28T01:08:52.498Z,17.30
2018-03-28T01:09:57.571Z,17.40
2018-03-28T01:11:02.571Z,17.30
2018-03-28T01:12:07.675Z,17.30
2018-03-28T01:13:12.767Z,17.40
2018-03-28T01:14:17.786Z,17.40
2018-03-28T01:15:22.665Z,17.30
2018-03-28T01:16:27.519Z,17.40
2018-03-28T01:17:32.422Z,17.40
2018-03-28T01:18:37.212Z,17.40
2018-03-28T01:19:42.031Z,17.40
2018-03-28T01:20:47.102Z,17.40
2018-03-28T01:21:51.878Z,17.40
2018-03-28T01:22:56.886Z,17.40
2018-03-28T01:24:01.644Z,17.40
2018-03-28T01:25:06.691Z,17.30
2018-03-28T01:26:11.705Z,17.30
2018-03-28T01:27:16.737Z,17.30
2018-03-28T01:28:21.517Z,17.40
2018-03-28T01:29:26.434Z,17.40
2018-03-28T01:30:31.650Z,17.40
2018-03-28T01:31:36.557Z,17.40
2018-03-28T01:32:41.477Z,17.40
2018-03-28T01:33:46.730Z,17.30
2018-03-28T01:34:51.953Z,17.30
2018-03-28T01:35:57.086Z,17.40
2018-03-28T01:37:02.143Z,17.30
2018-03-28T01:38:07.285Z,17.30
2018-03-28T01:39:12.430Z,17.30
2018-03-28T01:40:17.659Z,17.30
2018-03-28T01:41:22.652Z,17.30
2018-03-28T01:42:27.728Z,17.30
2018-03-28T01:43:32.836Z,17.30
2018-03-28T01:44:37.988Z,17.30
2018-03-28T01:45:43.063Z,17.30
2018-03-28T01:46:48.167Z,17.30
2018-03-28T01:47:53.096Z,17.30
2018-03-28T01:48:58.286Z,17.30
2018-03-28T01:50:03.376Z,17.30
2018-03-28T01:51:08.418Z,17.30
2018-03-28T01:52:13.306Z,17.30
2018-03-28T01:53:18.516Z,17.30
2018-03-28T01:54:23.548Z,17.30
2018-03-28T01:55:28.488Z,17.30
2018-03-28T01:56:33.317Z,17.30
2018-03-28T01:57:38.363Z,17.30
2018-03-28T01:58:43.559Z,17.30
2018-03-28T01:59:48.479Z,17.30
2018-03-28T02:00:53.587Z,17.30
2018-03-28T02:01:58.615Z,17.30
2018-03-28T02:03:03.440Z,17.30
2018-03-28T02:04:08.545Z,17.30
2018-03-28T02:05:13.580Z,17.30
2018-03-28T02:06:18.633Z,17.30
2018-03-28T02:07:23.658Z,17.30
2018-03-28T02:08:28.622Z,17.30
2018-03-28T02:09:33.589Z,17.30
2018-03-28T02:10:38.372Z,17.30
2018-03-28T02:11:43.472Z,17.30
2018-03-28T02:12:48.481Z,17.30
2018-03-28T02:13:53.551Z,17.30
2018-03-28T02:14:58.357Z,17.30
2018-03-28T02:16:03.191Z,17.30
2018-03-28T02:17:08.011Z,17.30
2018-03-28T02:18:13.058Z,17.30
2018-03-28T02:19:17.915Z,17.30
2018-03-28T02:20:22.930Z,17.30
2018-03-28T02:21:28.130Z,17.30
2018-03-28T02:22:33.178Z,17.30
2018-03-28T02:23:38.067Z,17.30
2018-03-28T02:24:42.980Z,17.30
2018-03-28T02:25:48.090Z,17.30
2018-03-28T02:26:52.880Z,17.30
2018-03-28T02:27:58.009Z,17.30
2018-03-28T02:29:02.928Z,17.30
2018-03-28T02:30:07.945Z,17.30
2018-03-28T02:31:12.773Z,17.30
2018-03-28T02:32:17.552Z,17.30
2018-03-28T02:33:22.555Z,17.30
2018-03-28T02:34:27.566Z,17.30
2018-03-28T02:35:32.593Z,17.30
2018-03-28T02:36:37.616Z,17.30
2018-03-28T02:37:42.821Z,17.30
2018-03-28T02:38:48.010Z,17.30
2018-03-28T02:39:53.029Z,17.30
2018-03-28T02:40:57.878Z,17.30
2018-03-28T02:42:02.858Z,17.30
2018-03-28T02:43:07.960Z,17.30
2018-03-28T02:44:13.008Z,17.30
2018-03-28T02:45:17.977Z,17.30
2018-03-28T02:46:23.124Z,17.30
2018-03-28T02:47:28.008Z,17.30
2018-03-28T02:48:33.129Z,17.30
2018-03-28T02:49:41.207Z,17.30
2018-03-28T02:50:46.343Z,17.30
2018-03-28T02:51:51.414Z,17.30
2018-03-28T02:52:56.528Z,17.30
2018-03-28T02:54:01.810Z,17.30
2018-03-28T02:55:06.863Z,17.30
2018-03-28T02:56:12.054Z,17.30
2018-03-28T02:57:17.175Z,17.30
2018-03-28T02:58:22.236Z,17.30
2018-03-28T02:59:27.324Z,17.30
2018-03-28T03:00:32.327Z,17.30
2018-03-28T03:01:37.370Z,17.30
2018-03-28T03:02:42.416Z,17.30
2018-03-28T03:03:47.541Z,17.30
2018-03-28T03:04:52.647Z,17.30
2018-03-28T03:05:57.541Z,17.30
2018-03-28T03:07:02.579Z,17.30
2018-03-28T03:08:07.464Z,17.30
2018-03-28T03:09:12.328Z,17.30
2018-03-28T03:10:17.463Z,17.30
2018-03-28T03:11:23.497Z,17.30
2018-03-28T03:12:28.642Z,17.30
2018-03-28T03:13:33.520Z,17.30
2018-03-28T03:14:38.383Z,17.30
2018-03-28T03:15:43.425Z,17.30
2018-03-28T03:16:48.448Z,17.30
2018-03-28T03:17:53.496Z,17.30
2018-03-28T03:18:58.339Z,17.30
2018-03-28T03:20:03.284Z,17.30
2018-03-28T03:21:08.237Z,17.30
2018-03-28T03:22:13.417Z,17.30
2018-03-28T03:23:18.544Z,17.30
2018-03-28T03:24:23.661Z,17.30
2018-03-28T03:25:28.703Z,17.30
2018-03-28T03:26:33.815Z,17.30
2018-03-28T03:27:38.745Z,17.30
2018-03-28T03:28:43.805Z,17.30
2018-03-28T03:29:48.684Z,17.30
2018-03-28T03:30:53.784Z,17.30
2018-03-28T03:31:58.707Z,17.30
2018-03-28T03:33:03.766Z,17.30
2018-03-28T03:34:08.708Z,17.30
2018-03-28T03:35:13.738Z,17.30
2018-03-28T03:36:18.890Z,17.30
2018-03-28T03:37:23.929Z,17.30
2018-03-28T03:38:28.954Z,17.30
2018-03-28T03:39:33.927Z,17.30
2018-03-28T03:40:39.095Z,17.30
2018-03-28T03:41:44.097Z,17.30
2018-03-28T03:42:49.215Z,17.30
2018-03-28T03:43:54.369Z,17.30
2018-03-28T03:44:59.554Z,17.30
2018-03-28T03:46:04.799Z,17.30
2018-03-28T03:47:09.794Z,17.30
2018-03-28T03:48:14.828Z,17.30
2018-03-28T03:49:20.000Z,17.30
2018-03-28T03:50:25.206Z,17.30
2018-03-28T03:51:30.435Z,17.30
2018-03-28T03:52:35.626Z,17.30
2018-03-28T03:53:40.913Z,17.30
2018-03-28T03:54:46.127Z,17.30
2018-03-28T03:55:51.254Z,17.20
2018-03-28T03:56:56.473Z,17.30
2018-03-28T03:58:01.625Z,17.30
2018-03-28T03:59:06.734Z,17.30
2018-03-28T04:00:11.751Z,17.30
2018-03-28T04:01:16.813Z,17.30
2018-03-28T04:02:21.803Z,17.30
2018-03-28T04:03:26.724Z,17.20
2018-03-28T04:04:31.921Z,17.20
2018-03-28T04:05:37.049Z,17.30
2018-03-28T04:06:42.124Z,17.20
2018-03-28T04:07:47.189Z,17.20
2018-03-28T04:08:52.001Z,17.20
2018-03-28T04:09:57.097Z,17.20
2018-03-28T04:11:02.162Z,17.20
2018-03-28T04:12:07.275Z,17.20
2018-03-28T04:13:12.279Z,17.20
2018-03-28T04:14:17.129Z,17.20
2018-03-28T04:15:22.214Z,17.20
2018-03-28T04:16:27.080Z,17.30
2018-03-28T04:17:32.038Z,17.20
2018-03-28T04:18:37.224Z,17.20
2018-03-28T04:19:42.269Z,17.20
2018-03-28T04:20:47.355Z,17.20
2018-03-28T04:21:52.275Z,17.20
2018-03-28T04:22:57.376Z,17.20
2018-03-28T04:24:02.414Z,17.20
2018-03-28T04:25:07.538Z,17.30
2018-03-28T04:26:12.448Z,17.20
2018-03-28T04:27:17.396Z,17.20
2018-03-28T04:28:22.393Z,17.30
2018-03-28T04:29:27.553Z,17.30
2018-03-28T04:30:32.659Z,17.30
2018-03-28T04:31:37.653Z,17.20
2018-03-28T04:32:42.531Z,17.20
2018-03-28T04:33:47.436Z,17.20
2018-03-28T04:34:52.557Z,17.20
2018-03-28T04:35:57.659Z,17.20
2018-03-28T04:37:03.048Z,17.20
2018-03-28T04:38:08.019Z,17.20
2018-03-28T04:39:12.866Z,17.20
2018-03-28T04:40:17.672Z,17.20
2018-03-28T04:41:22.768Z,17.20
2018-03-28T04:42:27.830Z,17.20
2018-03-28T04:43:32.962Z,17.20
2018-03-28T04:44:38.036Z,17.20
2018-03-28T04:45:43.175Z,17.20
2018-03-28T04:46:48.227Z,17.20
2018-03-28T04:47:53.238Z,17.20
2018-03-28T04:48:58.408Z,17.20
2018-03-28T04:50:03.532Z,17.20
2018-03-28T04:51:08.595Z,17.20
2018-03-28T04:52:13.682Z,17.20
2018-03-28T04:53:18.764Z,17.20
2018-03-28T04:54:23.892Z,17.20
2018-03-28T04:55:29.031Z,17.20
2018-03-28T04:56:34.305Z,17.20
2018-03-28T04:57:39.314Z,17.20
2018-03-28T04:58:44.355Z,17.20
2018-03-28T04:59:49.261Z,17.20
2018-03-28T05:00:54.374Z,17.20
2018-03-28T05:01:59.222Z,17.20
2018-03-28T05:03:04.366Z,17.20
2018-03-28T05:04:09.708Z,17.20
2018-03-28T05:05:14.697Z,17.10
2018-03-28T05:06:19.615Z,17.10
2018-03-28T05:07:24.658Z,17.00
2018-03-28T05:08:29.654Z,16.90
2018-03-28T05:09:34.740Z,16.80
2018-03-28T05:10:39.613Z,16.70
2018-03-28T05:11:44.710Z,16.60
2018-03-28T05:12:49.585Z,16.60
2018-03-28T05:13:54.544Z,16.60
2018-03-28T05:14:59.668Z,16.60
2018-03-28T05:16:04.749Z,16.60
2018-03-28T05:17:09.694Z,16.70
2018-03-28T05:18:14.813Z,16.70
2018-03-28T05:19:19.865Z,16.80
2018-03-28T05:20:24.858Z,16.90
2018-03-28T05:21:29.981Z,17.00
2018-03-28T05:22:35.215Z,17.00
2018-03-28T05:23:40.374Z,17.10
2018-03-28T05:24:45.537Z,17.20
2018-03-28T05:25:50.731Z,17.30
2018-03-28T05:26:55.857Z,17.40
2018-03-28T05:28:00.930Z,17.50
2018-03-28T05:29:06.036Z,17.50
2018-03-28T05:30:11.109Z,17.60
2018-03-28T05:31:16.612Z,17.70
2018-03-28T05:32:22.352Z,17.80
2018-03-28T05:33:30.113Z,17.80
2018-03-28T05:34:35.301Z,17.90
2018-03-28T05:35:40.385Z,18.00
2018-03-28T05:36:47.844Z,18.10
2018-03-28T05:37:53.268Z,18.20
2018-03-28T05:38:58.598Z,18.30
2018-03-28T05:40:03.981Z,18.30
2018-03-28T05:41:09.178Z,18.40
2018-03-28T05:42:14.573Z,18.50
2018-03-28T05:43:19.738Z,18.50
2018-03-28T05:44:24.893Z,18.60
2018-03-28T05:45:30.067Z,18.60
2018-03-28T05:46:35.965Z,18.60
2018-03-28T05:47:41.149Z,18.60
2018-03-28T05:48:46.249Z,18.70
2018-03-28T05:49:51.308Z,18.70
2018-03-28T05:50:56.685Z,18.80
2018-03-28T05:52:01.789Z,18.70
2018-03-28T05:53:07.067Z,18.70
2018-03-28T05:54:12.294Z,18.80
2018-03-28T05:55:17.460Z,18.80
2018-03-28T05:56:22.610Z,18.90
2018-03-28T05:57:27.731Z,18.90
2018-03-28T05:58:32.932Z,18.90
2018-03-28T05:59:38.050Z,19.00
2018-03-28T06:00:43.745Z,19.00
2018-03-28T06:01:48.955Z,19.10
2018-03-28T06:02:54.526Z,19.10
2018-03-28T06:03:59.621Z,19.20
2018-03-28T06:05:04.737Z,19.20
2018-03-28T06:06:09.714Z,19.20
2018-03-28T06:07:14.706Z,19.20
2018-03-28T06:08:19.806Z,19.20
2018-03-28T06:09:24.967Z,19.20
2018-03-28T06:10:29.978Z,19.30
2018-03-28T06:11:35.056Z,19.20
2018-03-28T06:12:40.141Z,19.20
2018-03-28T06:13:45.086Z,19.10
2018-03-28T06:14:50.217Z,19.10
2018-03-28T06:15:56.155Z,19.20
2018-03-28T06:17:01.355Z,19.10
2018-03-28T06:18:06.421Z,19.20
2018-03-28T06:19:11.662Z,19.20
2018-03-28T06:20:16.700Z,19.20
2018-03-28T06:21:21.831Z,19.20
2018-03-28T06:22:26.932Z,19.10
2018-03-28T06:23:32.097Z,19.00
2018-03-28T06:24:37.259Z,19.00
2018-03-28T06:25:42.438Z,18.90
2018-03-28T06:26:47.616Z,18.80
2018-03-28T06:27:52.707Z,18.80
2018-03-28T06:28:57.807Z,18.70
2018-03-28T06:30:03.036Z,18.80
2018-03-28T06:31:07.973Z,18.70
2018-03-28T06:32:13.133Z,18.70
2018-03-28T06:33:18.907Z,18.70
2018-03-28T06:34:24.729Z,18.70
2018-03-28T06:35:30.425Z,18.60
2018-03-28T06:36:36.059Z,18.60
2018-03-28T06:37:42.045Z,18.60
2018-03-28T06:38:47.133Z,18.60
2018-03-28T06:39:52.316Z,18.60
2018-03-28T06:40:57.543Z,18.60
2018-03-28T06:42:02.600Z,18.60
2018-03-28T06:43:07.810Z,18.60
2018-03-28T06:44:13.020Z,18.50
2018-03-28T06:45:18.045Z,18.50
2018-03-28T06:46:23.220Z,18.50
2018-03-28T06:47:28.286Z,18.50
2018-03-28T06:48:33.307Z,18.40
2018-03-28T06:49:38.469Z,18.50
2018-03-28T06:50:43.650Z,18.50
2018-03-28T06:51:48.678Z,18.40
2018-03-28T06:52:53.843Z,18.40
2018-03-28T06:53:59.064Z,18.40
2018-03-28T06:55:04.025Z,18.40
2018-03-28T06:56:09.080Z,18.40
2018-03-28T06:57:14.310Z,18.40
2018-03-28T06:58:19.262Z,18.30
2018-03-28T06:59:24.533Z,18.30
2018-03-28T07:00:29.421Z,18.30
2018-03-28T07:01:34.450Z,18.30
2018-03-28T07:02:39.673Z,18.30
2018-03-28T07:03:44.680Z,18.30
2018-03-28T07:04:49.761Z,18.30
2018-03-28T07:05:54.795Z,18.30
2018-03-28T07:06:59.923Z,18.30
2018-03-28T07:08:05.055Z,18.30
2018-03-28T07:09:10.311Z,18.30
2018-03-28T07:10:15.407Z,18.30
2018-03-28T07:11:20.489Z,18.20
2018-03-28T07:12:25.602Z,18.20
2018-03-28T07:13:30.568Z,18.30
2018-03-28T07:14:35.463Z,18.30
2018-03-28T07:15:40.489Z,18.30
2018-03-28T07:16:45.635Z,18.40
2018-03-28T07:17:50.566Z,18.40
2018-03-28T07:18:55.872Z,18.40
2018-03-28T07:20:00.950Z,18.40
2018-03-28T07:21:05.972Z,18.50
2018-03-28T07:22:11.034Z,18.50
2018-03-28T07:23:16.137Z,18.50
2018-03-28T07:24:21.098Z,18.50
2018-03-28T07:25:37.997Z,18.50
2018-03-28T07:26:43.082Z,18.50
2018-03-28T07:27:47.941Z,18.50
2018-03-28T07:28:52.931Z,18.50
2018-03-28T07:29:57.853Z,18.50
2018-03-28T07:31:03.013Z,18.50
2018-03-28T07:32:07.922Z,18.50
2018-03-28T07:33:12.933Z,18.50
2018-03-28T07:34:18.019Z,18.50
2018-03-28T07:35:22.871Z,18.50
2018-03-28T07:36:27.792Z,18.50
2018-03-28T07:37:32.811Z,18.50
2018-03-28T07:38:37.572Z,18.60
2018-03-28T07:39:42.464Z,18.60
2018-03-28T07:40:47.315Z,18.50
2018-03-28T07:41:52.061Z,18.50
2018-03-28T07:42:56.996Z,18.50
2018-03-28T07:44:02.415Z,18.40
2018-03-28T07:45:07.549Z,18.40
2018-03-28T07:46:12.569Z,18.40
2018-03-28T07:47:17.815Z,18.40
2018-03-28T07:48:23.011Z,18.40
2018-03-28T07:49:28.196Z,18.30
2018-03-28T07:50:33.021Z,18.30
2018-03-28T07:51:38.218Z,18.30
2018-03-28T07:52:43.082Z,18.30
2018-03-28T07:53:47.988Z,18.30
2018-03-28T07:54:53.042Z,18.40
2018-03-28T07:55:58.194Z,18.30
2018-03-28T07:57:03.178Z,18.30
2018-03-28T07:58:08.041Z,18.30
2018-03-28T07:59:12.982Z,18.40
2018-03-28T08:00:18.212Z,18.40
2018-03-28T08:01:23.384Z,18.40
2018-03-28T08:02:28.479Z,18.40
2018-03-28T08:03:33.647Z,18.40
2018-03-28T08:04:38.853Z,18.40
2018-03-28T08:05:46.341Z,18.40
2018-03-28T08:06:51.450Z,18.40
2018-03-28T08:07:56.730Z,18.40
2018-03-28T08:09:01.910Z,18.40
2018-03-28T08:10:07.012Z,18.40
2018-03-28T08:11:11.982Z,18.30
2018-03-28T08:12:17.072Z,18.30
2018-03-28T08:13:21.954Z,18.30
2018-03-28T08:14:27.003Z,18.20
2018-03-28T08:15:32.117Z,18.20
2018-03-28T08:16:37.189Z,18.20
2018-03-28T08:17:42.230Z,18.10
2018-03-28T08:18:47.222Z,18.10
2018-03-28T08:19:52.419Z,18.20
2018-03-28T08:20:57.613Z,18.20
2018-03-28T08:22:02.672Z,18.30
2018-03-28T08:23:07.857Z,18.30
2018-03-28T08:24:12.948Z,18.30
2018-03-28T08:25:18.124Z,18.40
2018-03-28T08:26:23.320Z,18.40
2018-03-28T08:27:28.449Z,18.40
2018-03-28T08:28:33.507Z,18.40
2018-03-28T08:29:38.649Z,18.30
2018-03-28T08:30:43.770Z,18.30
2018-03-28T08:31:48.890Z,18.30
2018-03-28T08:32:54.105Z,18.20
2018-03-28T08:33:59.296Z,18.30
2018-03-28T08:35:04.472Z,18.30
2018-03-28T08:36:09.595Z,18.30
2018-03-28T08:37:14.680Z,18.30
2018-03-28T08:38:19.833Z,18.30
2018-03-28T08:39:24.998Z,18.30
2018-03-28T08:40:30.202Z,18.30
2018-03-28T08:41:35.363Z,18.30
2018-03-28T08:42:41.060Z,18.20
2018-03-28T08:43:46.201Z,18.20
2018-03-28T08:44:51.159Z,18.20
2018-03-28T08:45:56.272Z,18.20
2018-03-28T08:47:01.187Z,18.20
2018-03-28T08:48:07.862Z,18.20
2018-03-28T08:49:13.041Z,18.20
2018-03-28T08:50:18.129Z,18.20
2018-03-28T08:51:23.217Z,18.20
2018-03-28T08:52:28.390Z,18.20
2018-03-28T08:53:33.368Z,18.20
2018-03-28T08:54:38.292Z,18.10
2018-03-28T08:55:43.395Z,18.20
2018-03-28T08:56:48.513Z,18.20
2018-03-28T08:57:53.395Z,18.20
2018-03-28T08:58:58.565Z,18.20
2018-03-28T09:00:03.677Z,18.20
2018-03-28T09:01:08.700Z,18.20
2018-03-28T09:02:13.887Z,18.20
2018-03-28T09:03:18.902Z,18.20
2018-03-28T09:04:24.098Z,18.20
2018-03-28T09:05:29.198Z,18.20
2018-03-28T09:06:35.099Z,18.20
2018-03-28T09:07:40.279Z,18.20
2018-03-28T09:08:45.611Z,18.20
2018-03-28T09:09:50.511Z,18.20
2018-03-28T09:10:55.426Z,18.20
2018-03-28T09:12:00.556Z,18.20
2018-03-28T09:13:05.762Z,18.20
2018-03-28T09:14:11.057Z,18.20
2018-03-28T09:15:16.258Z,18.20
2018-03-28T09:16:21.389Z,18.20
2018-03-28T09:17:26.582Z,18.30
2018-03-28T09:18:31.638Z,18.30
2018-03-28T09:19:36.693Z,18.20
2018-03-28T09:20:41.926Z,18.30
2018-03-28T09:21:46.931Z,18.30
2018-03-28T09:22:52.015Z,18.30
2018-03-28T09:23:57.134Z,18.30
2018-03-28T09:25:02.209Z,18.30
2018-03-28T09:26:07.319Z,18.30
2018-03-28T09:27:12.342Z,18.30
2018-03-28T09:28:17.353Z,18.40
2018-03-28T09:29:22.337Z,18.40
2018-03-28T09:30:27.339Z,18.40
2018-03-28T09:31:32.364Z,18.40
2018-03-28T09:32:37.421Z,18.40
2018-03-28T09:33:42.379Z,18.40
2018-03-28T09:34:47.435Z,18.40
2018-03-28T09:35:53.424Z,18.40
2018-03-28T09:36:58.514Z,18.40
2018-03-28T09:38:03.740Z,18.50
2018-03-28T09:39:08.955Z,18.40
2018-03-28T09:40:13.945Z,18.50
2018-03-28T09:41:19.041Z,18.50
2018-03-28T09:42:24.139Z,18.50
2018-03-28T09:43:29.260Z,18.40
2018-03-28T09:44:34.146Z,18.40
2018-03-28T09:45:39.422Z,18.40
2018-03-28T09:46:44.337Z,18.40
2018-03-28T09:47:49.331Z,18.40
2018-03-28T09:48:54.547Z,18.40
2018-03-28T09:49:59.520Z,18.40
2018-03-28T09:51:04.657Z,18.40
2018-03-28T09:52:09.643Z,18.40
2018-03-28T09:53:14.577Z,18.40
2018-03-28T09:54:19.794Z,18.50
2018-03-28T09:55:24.658Z,18.50
2018-03-28T09:56:29.854Z,18.40
2018-03-28T09:57:34.954Z,18.40
2018-03-28T09:58:39.896Z,18.40
2018-03-28T09:59:44.972Z,18.40
2018-03-28T10:00:50.112Z,18.40
2018-03-28T10:01:55.235Z,18.40
2018-03-28T10:03:00.397Z,18.40
2018-03-28T10:04:05.394Z,18.40
2018-03-28T10:05:10.402Z,18.40
2018-03-28T10:06:15.375Z,18.40
2018-03-28T10:07:20.505Z,18.30
2018-03-28T10:08:25.608Z,18.30
2018-03-28T10:09:30.715Z,18.30
2018-03-28T10:10:35.855Z,18.30
2018-03-28T10:11:40.841Z,18.30
2018-03-28T10:12:45.769Z,18.30
2018-03-28T10:13:50.984Z,18.20
2018-03-28T10:14:55.853Z,18.00
2018-03-28T10:16:00.924Z,17.90
2018-03-28T10:17:05.728Z,17.80
2018-03-28T10:18:10.616Z,17.80
2018-03-28T10:19:15.603Z,17.70
2018-03-28T10:20:20.774Z,17.80
2018-03-28T10:21:25.898Z,17.80
2018-03-28T10:22:31.071Z,17.90
2018-03-28T10:23:36.197Z,17.90
2018-03-28T10:24:41.274Z,17.90
2018-03-28T10:25:46.279Z,17.80
2018-03-28T10:26:51.424Z,17.90
2018-03-28T10:27:56.453Z,17.90
2018-03-28T10:29:01.640Z,17.90
2018-03-28T10:30:06.696Z,17.90
2018-03-28T10:31:11.780Z,17.90
2018-03-28T10:32:16.771Z,17.90
2018-03-28T10:33:21.829Z,17.90
2018-03-28T10:34:26.990Z,17.90
2018-03-28T10:35:32.065Z,17.90
2018-03-28T10:36:37.168Z,18.00
2018-03-28T10:37:42.235Z,18.00
2018-03-28T10:38:47.292Z,18.00
2018-03-28T10:39:52.367Z,18.00
2018-03-28T10:40:57.481Z,18.00
2018-03-28T10:42:02.569Z,18.00
2018-03-28T10:43:07.521Z,18.00
2018-03-28T10:44:12.680Z,18.00
2018-03-28T10:45:17.570Z,18.00
2018-03-28T10:46:22.445Z,18.00
2018-03-28T10:47:27.576Z,18.00
2018-03-28T10:48:32.631Z,18.00
2018-03-28T10:49:37.554Z,18.00
2018-03-28T10:50:42.659Z,17.90
2018-03-28T10:51:47.687Z,17.90
2018-03-28T10:52:52.656Z,17.90
2018-03-28T10:53:57.716Z,17.90
2018-03-28T10:55:02.568Z,17.90
2018-03-28T10:56:07.550Z,17.90
2018-03-28T10:57:12.401Z,17.90
2018-03-28T10:58:17.359Z,17.90
2018-03-28T10:59:22.349Z,17.90
2018-03-28T11:00:27.371Z,17.90
2018-03-28T11:01:32.160Z,17.90
2018-03-28T11:02:37.269Z,17.90
2018-03-28T11:03:42.312Z,17.90
2018-03-28T11:04:47.381Z,17.90
2018-03-28T11:05:52.232Z,17.90
2018-03-28T11:06:57.281Z,17.90
2018-03-28T11:08:02.280Z,17.90
2018-03-28T11:09:07.379Z,17.90
2018-03-28T11:10:12.416Z,17.90
2018-03-28T11:11:17.273Z,17.90
2018-03-28T11:12:22.309Z,17.90
2018-03-28T11:13:27.112Z,17.80
2018-03-28T11:14:32.184Z,17.80
2018-03-28T11:15:37.134Z,17.80
2018-03-28T11:16:42.114Z,17.80
2018-03-28T11:17:46.984Z,17.80
2018-03-28T11:18:52.168Z,17.80
2018-03-28T11:19:57.125Z,17.80
2018-03-28T11:21:02.178Z,17.80
2018-03-28T11:22:07.221Z,17.80
2018-03-28T11:23:12.326Z,17.80
2018-03-28T11:24:17.294Z,17.80
2018-03-28T11:25:22.463Z,17.80
2018-03-28T11:26:27.393Z,17.80
2018-03-28T11:27:32.390Z,17.90
2018-03-28T11:28:37.373Z,17.80
2018-03-28T11:29:42.574Z,17.80
2018-03-28T11:30:47.703Z,17.80
2018-03-28T11:31:52.852Z,17.80
2018-03-28T11:32:57.790Z,17.80
2018-03-28T11:34:02.884Z,17.80
2018-03-28T11:35:08.116Z,17.80
2018-03-28T11:36:13.194Z,17.80
2018-03-28T11:37:18.331Z,17.80
2018-03-28T11:38:23.514Z,17.80
2018-03-28T11:39:28.705Z,17.80
2018-03-28T11:40:33.764Z,17.80
2018-03-28T11:41:38.930Z,17.80
2018-03-28T11:42:43.895Z,17.90
2018-03-28T11:43:49.066Z,17.90
2018-03-28T11:44:54.129Z,17.90
2018-03-28T11:45:59.133Z,17.90
2018-03-28T11:47:04.160Z,17.90
2018-03-28T11:48:09.125Z,17.90
2018-03-28T11:49:13.988Z,18.00
2018-03-28T11:50:19.021Z,18.00
2018-03-28T11:51:23.904Z,18.10
2018-03-28T11:52:29.032Z,18.10
2018-03-28T11:53:34.111Z,18.10
2018-03-28T11:54:39.151Z,18.10
2018-03-28T11:55:43.982Z,18.10
2018-03-28T11:56:48.889Z,18.10
2018-03-28T11:57:53.950Z,18.10
2018-03-28T11:58:58.973Z,18.10
2018-03-28T12:00:04.017Z,18.10
2018-03-28T12:01:09.006Z,18.10
2018-03-28T12:02:13.981Z,18.10
2018-03-28T12:03:18.833Z,18.10
2018-03-28T12:04:23.910Z,18.10
2018-03-28T12:05:28.712Z,18.10
2018-03-28T12:06:33.699Z,18.10
2018-03-28T12:07:38.827Z,18.00
2018-03-28T12:08:43.817Z,18.00
2018-03-28T12:09:48.770Z,18.00
2018-03-28T12:10:53.864Z,18.00
2018-03-28T12:11:58.858Z,17.90
2018-03-28T12:13:03.837Z,17.90
2018-03-28T12:14:08.851Z,17.90
2018-03-28T12:15:13.818Z,17.80
2018-03-28T12:16:18.885Z,17.80
2018-03-28T12:17:23.852Z,17.80
2018-03-28T12:18:28.937Z,17.80
2018-03-28T12:19:34.053Z,17.80
2018-03-28T12:20:39.009Z,17.70
2018-03-28T12:21:44.045Z,17.70
2018-03-28T12:22:48.863Z,17.70
2018-03-28T12:23:53.841Z,17.70
2018-03-28T12:24:59.015Z,17.70
2018-03-28T12:26:04.060Z,17.70
2018-03-28T12:27:09.143Z,17.70
2018-03-28T12:28:14.182Z,17.70
2018-03-28T12:29:19.114Z,17.70
2018-03-28T12:30:24.247Z,17.70
2018-03-28T12:31:29.354Z,17.70
2018-03-28T12:32:34.408Z,17.70
2018-03-28T12:33:39.357Z,17.70
2018-03-28T12:34:44.360Z,17.70
2018-03-28T12:35:49.541Z,17.70
2018-03-28T12:36:54.495Z,17.70
2018-03-28T12:37:59.735Z,17.70
2018-03-28T12:39:04.645Z,17.70
2018-03-28T12:40:09.535Z,17.60
2018-03-28T12:41:14.396Z,17.60
2018-03-28T12:42:19.509Z,17.60
2018-03-28T12:43:24.546Z,17.60
2018-03-28T12:44:29.613Z,17.60
2018-03-28T12:45:34.581Z,17.60
2018-03-28T12:46:39.398Z,17.60
2018-03-28T12:47:44.269Z,17.60
2018-03-28T12:48:49.114Z,17.60
2018-03-28T12:49:54.287Z,17.60
2018-03-28T12:50:58.971Z,17.60
2018-03-28T12:52:03.727Z,17.60
2018-03-28T12:53:08.776Z,17.60
2018-03-28T12:54:13.882Z,17.60
2018-03-28T12:55:18.969Z,17.60
2018-03-28T12:56:24.009Z,17.60
2018-03-28T12:57:29.106Z,17.60
2018-03-28T12:58:34.146Z,17.60
2018-03-28T12:59:39.244Z,17.60
2018-03-28T13:00:44.296Z,17.60
2018-03-28T13:01:49.324Z,17.60
2018-03-28T13:02:54.339Z,17.60
2018-03-28T13:03:59.151Z,17.60
2018-03-28T13:05:04.075Z,17.60
2018-03-28T13:06:09.226Z,17.60
2018-03-28T13:07:14.395Z,17.60
2018-03-28T13:08:19.225Z,17.60
2018-03-28T13:09:24.373Z,17.60
2018-03-28T13:10:29.207Z,17.60
2018-03-28T13:11:34.377Z,17.60
2018-03-28T13:12:39.534Z,17.60
2018-03-28T13:13:44.455Z,17.50
2018-03-28T13:14:49.323Z,17.60
2018-03-28T13:15:54.256Z,17.60
2018-03-28T13:16:59.181Z,17.50
2018-03-28T13:18:04.312Z,17.50
2018-03-28T13:19:09.434Z,17.60
2018-03-28T13:20:14.707Z,17.60
2018-03-28T13:21:19.881Z,17.60
2018-03-28T13:22:25.075Z,17.60
2018-03-28T13:23:30.291Z,17.60
2018-03-28T13:24:35.554Z,17.60
2018-03-28T13:25:40.768Z,17.60
2018-03-28T13:26:45.795Z,17.60
2018-03-28T13:27:50.963Z,17.60
2018-03-28T13:28:55.939Z,17.70
2018-03-28T13:30:01.100Z,17.70
2018-03-28T13:31:06.018Z,17.80
2018-03-28T13:32:10.910Z,18.10
2018-03-28T13:33:15.833Z,18.30
2018-03-28T13:34:20.910Z,18.20
2018-03-28T13:35:26.001Z,18.10
2018-03-28T13:36:30.919Z,18.00
2018-03-28T13:37:36.004Z,18.00
2018-03-28T13:38:41.121Z,17.90
2018-03-28T13:39:46.200Z,17.90
2018-03-28T13:40:51.157Z,17.80
2018-03-28T13:41:56.306Z,17.80
2018-03-28T13:43:01.435Z,17.70
2018-03-28T13:44:06.626Z,17.70
2018-03-28T13:45:11.613Z,17.70
2018-03-28T13:46:16.549Z,17.70
2018-03-28T13:47:21.376Z,17.70
2018-03-28T13:48:26.454Z,17.70
2018-03-28T13:49:32.591Z,17.70
2018-03-28T13:50:38.091Z,17.70
2018-03-28T13:51:43.142Z,17.70
2018-03-28T13:52:48.230Z,17.70
2018-03-28T13:53:53.277Z,17.60
2018-03-28T13:54:58.388Z,17.60
2018-03-28T13:56:03.490Z,17.60
2018-03-28T13:57:08.653Z,17.60
2018-03-28T13:58:13.585Z,17.60